sensor_id;sensor_type;location;lat;lon;timestamp;noise_LAeq;noise_LA_min;noise_LA_max;noise_LA01;noise_LA95
45246;Laerm;31529;51.158;7.354;2023-05-10T00:00:06;48.40;43.64;67.96;;
45246;Laerm;31529;51.158;7.354;2023-05-10T00:00:37;47.36;43.18;64.96;;
45246;Laerm;31529;51.158;7.354;2023-05-10T00:01:08;48.98;43.54;67.69;;
45246;Laerm;31529;51.158;7.354;2023-05-10T00:01:39;50.11;43.59;71.77;;
45246;Laerm;31529;51.158;7.354;2023-05-10T00:02:11;71.49;46.29;83.82;;
45246;Laerm;31529;51.158;7.354;2023-05-10T00:02:42;54.87;44.53;70.98;;
45246;Laerm;31529;51.158;7.354;2023-05-10T00:03:13;49.33;43.88;68.96;;
45246;Laerm;31529;51.158;7.354;2023-05-10T00:03:44;49.19;44.24;71.76;;
45246;Laerm;31529;51.158;7.354;2023-05-10T00:04:15;49.18;44.41;68.00;;
45246;Laerm;31529;51.158;7.354;2023-05-10T00:04:46;48.85;44.37;67.06;;
45246;Laerm;31529;51.158;7.354;2023-05-10T00:05:17;49.23;43.74;68.44;;
45246;Laerm;31529;51.158;7.354;2023-05-10T00:05:49;52.27;44.88;69.16;;
45246;Laerm;31529;51.158;7.354;2023-05-10T00:06:20;52.06;45.27;74.28;;
45246;Laerm;31529;51.158;7.354;2023-05-10T00:06:51;52.96;46.05;71.11;;
45246;Laerm;31529;51.158;7.354;2023-05-10T00:07:22;54.08;46.85;71.32;;
45246;Laerm;31529;51.158;7.354;2023-05-10T00:07:53;54.55;46.55;75.40;;
45246;Laerm;31529;51.158;7.354;2023-05-10T00:08:24;53.24;45.57;74.86;;
45246;Laerm;31529;51.158;7.354;2023-05-10T00:08:55;49.52;45.17;65.93;;
45246;Laerm;31529;51.158;7.354;2023-05-10T00:09:26;49.84;45.47;66.43;;
45246;Laerm;31529;51.158;7.354;2023-05-10T00:09:58;51.67;45.53;70.86;;
45246;Laerm;31529;51.158;7.354;2023-05-10T00:10:29;54.25;45.20;76.82;;
45246;Laerm;31529;51.158;7.354;2023-05-10T00:11:00;52.12;44.92;72.64;;
45246;Laerm;31529;51.158;7.354;2023-05-10T00:11:31;50.67;44.72;73.09;;
45246;Laerm;31529;51.158;7.354;2023-05-10T00:12:02;51.05;45.03;72.08;;
45246;Laerm;31529;51.158;7.354;2023-05-10T00:12:33;49.33;45.03;69.29;;
45246;Laerm;31529;51.158;7.354;2023-05-10T00:13:04;50.78;45.27;68.87;;
45246;Laerm;31529;51.158;7.354;2023-05-10T00:13:35;50.85;44.57;75.36;;
45246;Laerm;31529;51.158;7.354;2023-05-10T00:14:07;50.21;43.93;71.47;;
45246;Laerm;31529;51.158;7.354;2023-05-10T00:14:38;51.38;44.45;73.62;;
45246;Laerm;31529;51.158;7.354;2023-05-10T00:15:09;51.94;44.27;71.83;;
45246;Laerm;31529;51.158;7.354;2023-05-10T00:15:40;46.82;43.59;62.46;;
45246;Laerm;31529;51.158;7.354;2023-05-10T00:16:11;48.80;43.84;67.69;;
45246;Laerm;31529;51.158;7.354;2023-05-10T00:16:43;60.02;45.03;72.59;;
45246;Laerm;31529;51.158;7.354;2023-05-10T00:17:14;54.22;43.84;67.70;;
45246;Laerm;31529;51.158;7.354;2023-05-10T00:17:45;47.34;43.23;68.93;;
45246;Laerm;31529;51.158;7.354;2023-05-10T00:18:17;49.05;43.06;70.63;;
45246;Laerm;31529;51.158;7.354;2023-05-10T00:18:48;46.78;42.26;69.90;;
45246;Laerm;31529;51.158;7.354;2023-05-10T00:19:19;46.59;42.59;66.47;;
45246;Laerm;31529;51.158;7.354;2023-05-10T00:19:50;46.40;42.77;61.51;;
45246;Laerm;31529;51.158;7.354;2023-05-10T00:20:21;45.81;41.76;64.12;;
45246;Laerm;31529;51.158;7.354;2023-05-10T00:20:54;46.57;41.83;69.05;;
45246;Laerm;31529;51.158;7.354;2023-05-10T00:21:25;47.94;41.83;70.21;;
45246;Laerm;31529;51.158;7.354;2023-05-10T00:21:58;49.27;42.12;72.67;;
45246;Laerm;31529;51.158;7.354;2023-05-10T00:22:30;46.16;41.52;66.91;;
45246;Laerm;31529;51.158;7.354;2023-05-10T00:23:02;46.91;42.05;67.46;;
45246;Laerm;31529;51.158;7.354;2023-05-10T00:23:33;47.35;41.76;70.67;;
45246;Laerm;31529;51.158;7.354;2023-05-10T00:24:04;45.28;41.68;61.44;;
45246;Laerm;31529;51.158;7.354;2023-05-10T00:24:35;45.96;42.05;65.60;;
45246;Laerm;31529;51.158;7.354;2023-05-10T00:25:07;63.67;43.69;77.65;;
45246;Laerm;31529;51.158;7.354;2023-05-10T00:25:38;47.31;42.19;68.65;;
45246;Laerm;31529;51.158;7.354;2023-05-10T00:26:09;69.91;43.34;83.30;;
45246;Laerm;31529;51.158;7.354;2023-05-10T00:26:41;48.22;41.91;65.22;;
45246;Laerm;31529;51.158;7.354;2023-05-10T00:27:12;45.19;41.76;65.43;;
45246;Laerm;31529;51.158;7.354;2023-05-10T00:27:44;45.29;41.56;63.90;;
45246;Laerm;31529;51.158;7.354;2023-05-10T00:28:15;48.28;41.60;72.69;;
45246;Laerm;31529;51.158;7.354;2023-05-10T00:28:46;45.08;41.36;66.55;;
45246;Laerm;31529;51.158;7.354;2023-05-10T00:29:17;45.41;41.76;61.65;;
45246;Laerm;31529;51.158;7.354;2023-05-10T00:29:48;46.35;41.83;68.77;;
45246;Laerm;31529;51.158;7.354;2023-05-10T00:30:19;47.66;42.71;71.09;;
45246;Laerm;31529;51.158;7.354;2023-05-10T00:30:50;48.28;42.26;70.47;;
45246;Laerm;31529;51.158;7.354;2023-05-10T00:31:21;45.37;41.52;63.38;;
45246;Laerm;31529;51.158;7.354;2023-05-10T00:31:52;45.90;41.10;63.72;;
45246;Laerm;31529;51.158;7.354;2023-05-10T00:32:23;45.65;40.73;69.26;;
45246;Laerm;31529;51.158;7.354;2023-05-10T00:32:55;47.24;41.10;68.78;;
45246;Laerm;31529;51.158;7.354;2023-05-10T00:33:26;50.40;41.28;75.07;;
45246;Laerm;31529;51.158;7.354;2023-05-10T00:33:57;44.83;41.60;62.57;;
45246;Laerm;31529;51.158;7.354;2023-05-10T00:34:28;46.21;41.01;66.99;;
45246;Laerm;31529;51.158;7.354;2023-05-10T00:34:59;45.72;41.44;67.37;;
45246;Laerm;31529;51.158;7.354;2023-05-10T00:35:30;46.89;41.83;68.88;;
45246;Laerm;31529;51.158;7.354;2023-05-10T00:36:01;45.48;40.53;68.60;;
45246;Laerm;31529;51.158;7.354;2023-05-10T00:36:32;44.38;40.73;60.49;;
45246;Laerm;31529;51.158;7.354;2023-05-10T00:37:03;45.66;40.63;68.33;;
45246;Laerm;31529;51.158;7.354;2023-05-10T00:37:34;44.62;40.83;64.71;;
45246;Laerm;31529;51.158;7.354;2023-05-10T00:38:06;44.33;41.01;64.68;;
45246;Laerm;31529;51.158;7.354;2023-05-10T00:38:37;45.02;41.36;63.87;;
45246;Laerm;31529;51.158;7.354;2023-05-10T00:39:08;43.41;40.22;57.78;;
45246;Laerm;31529;51.158;7.354;2023-05-10T00:39:39;43.84;40.22;65.13;;
45246;Laerm;31529;51.158;7.354;2023-05-10T00:40:11;43.95;40.33;65.11;;
45246;Laerm;31529;51.158;7.354;2023-05-10T00:40:42;43.60;40.53;57.78;;
45246;Laerm;31529;51.158;7.354;2023-05-10T00:41:13;62.58;41.98;77.13;;
45246;Laerm;31529;51.158;7.354;2023-05-10T00:41:44;42.91;40.11;56.13;;
45246;Laerm;31529;51.158;7.354;2023-05-10T00:42:16;43.44;39.51;66.03;;
45246;Laerm;31529;51.158;7.354;2023-05-10T00:42:47;43.26;39.38;62.27;;
45246;Laerm;31529;51.158;7.354;2023-05-10T00:43:18;46.18;40.00;70.74;;
45246;Laerm;31529;51.158;7.354;2023-05-10T00:43:49;43.29;39.51;64.12;;
45246;Laerm;31529;51.158;7.354;2023-05-10T00:44:20;44.43;39.11;68.97;;
45246;Laerm;31529;51.158;7.354;2023-05-10T00:44:51;44.07;40.43;64.64;;
45246;Laerm;31529;51.158;7.354;2023-05-10T00:45:22;42.82;39.38;62.59;;
45246;Laerm;31529;51.158;7.354;2023-05-10T00:45:54;42.72;39.64;60.45;;
45246;Laerm;31529;51.158;7.354;2023-05-10T00:46:25;43.04;38.97;63.45;;
45246;Laerm;31529;51.158;7.354;2023-05-10T00:46:57;42.56;39.38;61.56;;
45246;Laerm;31529;51.158;7.354;2023-05-10T00:47:28;43.64;40.33;56.23;;
45246;Laerm;31529;51.158;7.354;2023-05-10T00:48:02;44.67;41.01;65.89;;
45246;Laerm;31529;51.158;7.354;2023-05-10T00:48:34;43.37;40.83;58.20;;
45246;Laerm;31529;51.158;7.354;2023-05-10T00:49:05;42.75;39.64;60.84;;
45246;Laerm;31529;51.158;7.354;2023-05-10T00:49:37;41.77;39.51;53.36;;
45246;Laerm;31529;51.158;7.354;2023-05-10T00:50:09;40.71;38.35;48.59;;
45246;Laerm;31529;51.158;7.354;2023-05-10T00:50:40;41.61;38.51;59.13;;
45246;Laerm;31529;51.158;7.354;2023-05-10T00:51:11;41.74;39.11;56.67;;
45246;Laerm;31529;51.158;7.354;2023-05-10T00:51:43;42.00;39.11;52.68;;
45246;Laerm;31529;51.158;7.354;2023-05-10T00:52:15;42.41;38.48;58.88;;
45246;Laerm;31529;51.158;7.354;2023-05-10T00:52:46;41.37;38.51;60.18;;
45246;Laerm;31529;51.158;7.354;2023-05-10T00:53:18;41.95;38.67;58.94;;
45246;Laerm;31529;51.158;7.354;2023-05-10T00:53:50;41.92;38.17;61.23;;
45246;Laerm;31529;51.158;7.354;2023-05-10T00:54:22;41.05;38.48;52.64;;
45246;Laerm;31529;51.158;7.354;2023-05-10T00:54:54;41.11;38.51;51.80;;
45246;Laerm;31529;51.158;7.354;2023-05-10T00:55:25;41.76;38.18;56.46;;
45246;Laerm;31529;51.158;7.354;2023-05-10T00:55:56;66.06;39.76;80.67;;
45246;Laerm;31529;51.158;7.354;2023-05-10T00:56:28;46.94;38.51;61.84;;
45246;Laerm;31529;51.158;7.354;2023-05-10T00:57:00;42.75;38.35;64.77;;
45246;Laerm;31529;51.158;7.354;2023-05-10T00:57:32;42.34;38.32;60.18;;
45246;Laerm;31529;51.158;7.354;2023-05-10T00:58:04;43.13;38.90;60.09;;
45246;Laerm;31529;51.158;7.354;2023-05-10T00:58:35;41.62;37.62;59.98;;
45246;Laerm;31529;51.158;7.354;2023-05-10T00:59:08;43.10;38.82;64.06;;
45246;Laerm;31529;51.158;7.354;2023-05-10T00:59:39;42.87;38.82;65.05;;
45246;Laerm;31529;51.158;7.354;2023-05-10T01:00:11;43.23;38.51;60.10;;
45246;Laerm;31529;51.158;7.354;2023-05-10T01:00:43;42.26;38.67;59.20;;
45246;Laerm;31529;51.158;7.354;2023-05-10T01:01:17;42.02;38.67;56.92;;
45246;Laerm;31529;51.158;7.354;2023-05-10T01:01:48;42.37;38.82;59.30;;
45246;Laerm;31529;51.158;7.354;2023-05-10T01:02:19;44.38;39.51;66.79;;
45246;Laerm;31529;51.158;7.354;2023-05-10T01:02:50;42.90;39.11;59.46;;
45246;Laerm;31529;51.158;7.354;2023-05-10T01:03:21;41.50;38.82;53.63;;
45246;Laerm;31529;51.158;7.354;2023-05-10T01:03:52;41.85;38.51;61.43;;
45246;Laerm;31529;51.158;7.354;2023-05-10T01:04:25;42.08;38.51;58.18;;
45246;Laerm;31529;51.158;7.354;2023-05-10T01:04:56;43.99;38.18;65.88;;
45246;Laerm;31529;51.158;7.354;2023-05-10T01:05:27;42.99;38.77;65.04;;
45246;Laerm;31529;51.158;7.354;2023-05-10T01:05:58;43.93;38.97;68.26;;
45246;Laerm;31529;51.158;7.354;2023-05-10T01:06:29;42.47;38.82;62.17;;
45246;Laerm;31529;51.158;7.354;2023-05-10T01:07:00;41.61;38.97;54.90;;
45246;Laerm;31529;51.158;7.354;2023-05-10T01:07:32;59.54;40.11;72.79;;
45246;Laerm;31529;51.158;7.354;2023-05-10T01:08:03;43.89;40.11;63.76;;
45246;Laerm;31529;51.158;7.354;2023-05-10T01:08:34;43.28;40.22;57.40;;
45246;Laerm;31529;51.158;7.354;2023-05-10T01:09:05;44.81;39.76;66.40;;
45246;Laerm;31529;51.158;7.354;2023-05-10T01:09:37;46.04;40.63;70.13;;
45246;Laerm;31529;51.158;7.354;2023-05-10T01:10:08;46.90;41.01;70.95;;
45246;Laerm;31529;51.158;7.354;2023-05-10T01:10:40;52.17;41.52;78.67;;
45246;Laerm;31529;51.158;7.354;2023-05-10T01:11:11;51.10;43.01;76.35;;
45246;Laerm;31529;51.158;7.354;2023-05-10T01:11:43;51.51;43.93;72.45;;
45246;Laerm;31529;51.158;7.354;2023-05-10T01:12:14;54.46;44.41;77.86;;
45246;Laerm;31529;51.158;7.354;2023-05-10T01:12:46;52.38;44.65;74.12;;
45246;Laerm;31529;51.158;7.354;2023-05-10T01:13:38;55.46;45.47;78.03;;
45246;Laerm;31529;51.158;7.354;2023-05-10T01:14:11;58.57;45.27;86.99;;
45246;Laerm;31529;51.158;7.354;2023-05-10T01:14:42;49.94;45.57;68.59;;
45246;Laerm;31529;51.158;7.354;2023-05-10T01:15:15;50.20;44.92;69.20;;
45246;Laerm;31529;51.158;7.354;2023-05-10T01:15:47;51.15;44.77;75.38;;
45246;Laerm;31529;51.158;7.354;2023-05-10T01:16:18;50.79;44.37;73.42;;
45246;Laerm;31529;51.158;7.354;2023-05-10T01:16:49;55.45;44.57;83.44;;
45246;Laerm;31529;51.158;7.354;2023-05-10T01:17:22;49.64;44.20;69.82;;
45246;Laerm;31529;51.158;7.354;2023-05-10T01:17:53;47.68;44.20;64.01;;
45246;Laerm;31529;51.158;7.354;2023-05-10T01:18:26;54.09;44.95;76.02;;
45246;Laerm;31529;51.158;7.354;2023-05-10T01:18:57;54.65;46.05;74.93;;
45246;Laerm;31529;51.158;7.354;2023-05-10T01:19:30;51.37;45.13;70.85;;
45246;Laerm;31529;51.158;7.354;2023-05-10T01:20:02;51.34;45.72;70.21;;
45246;Laerm;31529;51.158;7.354;2023-05-10T01:20:40;55.87;46.24;77.41;;
45246;Laerm;31529;51.158;7.354;2023-05-10T01:21:25;56.99;49.79;75.48;;
45246;Laerm;31529;51.158;7.354;2023-05-10T01:23:16;63.46;49.55;80.68;;
45246;Laerm;31529;51.158;7.354;2023-05-10T01:26:07;54.91;46.65;79.58;;
45246;Laerm;31529;51.158;7.354;2023-05-10T01:29:24;64.49;45.13;78.59;;
45246;Laerm;31529;51.158;7.354;2023-05-10T01:31:30;44.78;41.76;67.56;;
45246;Laerm;31529;51.158;7.354;2023-05-10T01:32:29;44.09;41.44;60.23;;
45246;Laerm;31529;51.158;7.354;2023-05-10T01:33:52;43.63;40.53;57.49;;
45246;Laerm;31529;51.158;7.354;2023-05-10T01:34:29;43.95;41.26;56.76;;
45246;Laerm;31529;51.158;7.354;2023-05-10T01:35:16;44.51;40.73;67.85;;
45246;Laerm;31529;51.158;7.354;2023-05-10T01:36:05;43.36;41.01;57.71;;
45246;Laerm;31529;51.158;7.354;2023-05-10T01:36:45;44.79;40.63;64.29;;
45246;Laerm;31529;51.158;7.354;2023-05-10T01:37:31;63.45;41.36;79.41;;
45246;Laerm;31529;51.158;7.354;2023-05-10T01:39:05;42.49;39.38;60.41;;
45246;Laerm;31529;51.158;7.354;2023-05-10T01:39:52;44.29;39.88;65.19;;
45246;Laerm;31529;51.158;7.354;2023-05-10T01:40:31;61.48;41.85;75.16;;
45246;Laerm;31529;51.158;7.354;2023-05-10T01:41:19;45.19;39.51;60.78;;
45246;Laerm;31529;51.158;7.354;2023-05-10T01:42:03;44.45;40.92;63.42;;
45246;Laerm;31529;51.158;7.354;2023-05-10T01:43:02;43.25;39.76;60.44;;
45246;Laerm;31529;51.158;7.354;2023-05-10T01:45:00;42.05;38.35;61.15;;
45246;Laerm;31529;51.158;7.354;2023-05-10T01:45:47;42.32;38.97;57.33;;
45246;Laerm;31529;51.158;7.354;2023-05-10T01:46:31;41.43;38.35;52.90;;
45246;Laerm;31529;51.158;7.354;2023-05-10T01:47:12;41.67;38.18;59.80;;
45246;Laerm;31529;51.158;7.354;2023-05-10T01:47:53;41.02;36.75;54.38;;
45246;Laerm;31529;51.158;7.354;2023-05-10T01:48:27;41.07;38.00;56.12;;
45246;Laerm;31529;51.158;7.354;2023-05-10T01:49:02;40.96;37.82;56.57;;
45246;Laerm;31529;51.158;7.354;2023-05-10T01:49:43;40.69;37.21;53.66;;
45246;Laerm;31529;51.158;7.354;2023-05-10T01:50:19;40.33;37.42;53.37;;
45246;Laerm;31529;51.158;7.354;2023-05-10T01:50:53;65.27;38.00;80.33;;
45246;Laerm;31529;51.158;7.354;2023-05-10T01:51:28;50.66;38.00;63.78;;
45246;Laerm;31529;51.158;7.354;2023-05-10T01:52:06;40.56;38.00;50.96;;
45246;Laerm;31529;51.158;7.354;2023-05-10T01:52:41;40.94;37.83;50.49;;
45246;Laerm;31529;51.158;7.354;2023-05-10T01:53:17;40.77;38.00;50.42;;
45246;Laerm;31529;51.158;7.354;2023-05-10T01:53:51;40.92;37.62;61.01;;
45246;Laerm;31529;51.158;7.354;2023-05-10T01:54:24;40.56;36.99;54.85;;
45246;Laerm;31529;51.158;7.354;2023-05-10T01:55:01;41.50;38.35;53.84;;
45246;Laerm;31529;51.158;7.354;2023-05-10T01:55:36;40.92;37.62;56.96;;
45246;Laerm;31529;51.158;7.354;2023-05-10T01:56:12;42.51;38.17;60.41;;
45246;Laerm;31529;51.158;7.354;2023-05-10T01:56:45;44.37;40.33;60.43;;
45246;Laerm;31529;51.158;7.354;2023-05-10T01:57:20;44.65;41.09;61.33;;
45246;Laerm;31529;51.158;7.354;2023-05-10T01:58:00;46.06;41.76;65.78;;
45246;Laerm;31529;51.158;7.354;2023-05-10T01:58:34;45.09;41.60;62.30;;
45246;Laerm;31529;51.158;7.354;2023-05-10T01:59:12;45.32;41.76;63.79;;
45246;Laerm;31529;51.158;7.354;2023-05-10T01:59:45;45.68;42.65;59.59;;
45246;Laerm;31529;51.158;7.354;2023-05-10T02:00:19;47.13;43.23;65.23;;
45246;Laerm;31529;51.158;7.354;2023-05-10T02:00:52;46.92;43.18;65.71;;
45246;Laerm;31529;51.158;7.354;2023-05-10T02:01:24;45.41;42.05;61.88;;
45246;Laerm;31529;51.158;7.354;2023-05-10T02:01:58;44.70;42.12;56.78;;
45246;Laerm;31529;51.158;7.354;2023-05-10T02:02:37;44.52;42.46;59.69;;
45246;Laerm;31529;51.158;7.354;2023-05-10T02:03:09;43.91;41.60;51.43;;
45246;Laerm;31529;51.158;7.354;2023-05-10T02:03:42;43.69;41.91;53.36;;
45246;Laerm;31529;51.158;7.354;2023-05-10T02:04:16;43.60;41.91;56.52;;
45246;Laerm;31529;51.158;7.354;2023-05-10T02:04:49;43.70;41.19;59.48;;
45246;Laerm;31529;51.158;7.354;2023-05-10T02:05:21;43.21;41.19;53.61;;
45246;Laerm;31529;51.158;7.354;2023-05-10T02:05:54;43.64;41.60;51.11;;
45246;Laerm;31529;51.158;7.354;2023-05-10T02:06:27;42.43;40.00;49.17;;
45246;Laerm;31529;51.158;7.354;2023-05-10T02:06:58;42.42;39.88;51.49;;
45246;Laerm;31529;51.158;7.354;2023-05-10T02:07:30;54.30;41.19;68.37;;
45246;Laerm;31529;51.158;7.354;2023-05-10T02:08:05;63.85;42.33;77.44;;
45246;Laerm;31529;51.158;7.354;2023-05-10T02:08:38;43.94;41.01;49.97;;
45246;Laerm;31529;51.158;7.354;2023-05-10T02:09:11;67.90;41.36;83.09;;
45246;Laerm;31529;51.158;7.354;2023-05-10T02:09:45;43.99;40.33;61.95;;
45246;Laerm;31529;51.158;7.354;2023-05-10T02:10:19;43.46;40.73;60.58;;
45246;Laerm;31529;51.158;7.354;2023-05-10T02:10:53;44.16;41.76;52.38;;
45246;Laerm;31529;51.158;7.354;2023-05-10T02:11:27;44.61;41.68;59.27;;
45246;Laerm;31529;51.158;7.354;2023-05-10T02:12:01;44.31;40.22;64.64;;
45246;Laerm;31529;51.158;7.354;2023-05-10T02:12:39;42.60;39.88;54.52;;
45246;Laerm;31529;51.158;7.354;2023-05-10T02:13:12;42.46;38.18;61.05;;
45246;Laerm;31529;51.158;7.354;2023-05-10T02:13:44;49.02;39.64;62.63;;
45246;Laerm;31529;51.158;7.354;2023-05-10T02:14:18;59.78;40.92;73.41;;
45246;Laerm;31529;51.158;7.354;2023-05-10T02:14:51;65.02;42.33;78.47;;
45246;Laerm;31529;51.158;7.354;2023-05-10T02:15:24;42.24;38.51;49.81;;
45246;Laerm;31529;51.158;7.354;2023-05-10T02:15:56;41.61;38.82;49.03;;
45246;Laerm;31529;51.158;7.354;2023-05-10T02:16:28;41.49;39.11;49.21;;
45246;Laerm;31529;51.158;7.354;2023-05-10T02:17:04;41.16;38.82;51.18;;
45246;Laerm;31529;51.158;7.354;2023-05-10T02:17:37;42.21;39.38;46.63;;
45246;Laerm;31529;51.158;7.354;2023-05-10T02:18:10;64.80;40.73;76.70;;
45246;Laerm;31529;51.158;7.354;2023-05-10T02:18:42;45.83;42.33;53.18;;
45246;Laerm;31529;51.158;7.354;2023-05-10T02:19:15;63.36;39.88;75.49;;
45246;Laerm;31529;51.158;7.354;2023-05-10T02:19:47;41.15;38.51;49.71;;
45246;Laerm;31529;51.158;7.354;2023-05-10T02:20:19;41.72;39.38;50.49;;
45246;Laerm;31529;51.158;7.354;2023-05-10T02:20:52;43.32;40.22;52.83;;
45246;Laerm;31529;51.158;7.354;2023-05-10T02:21:25;41.75;39.38;50.47;;
45246;Laerm;31529;51.158;7.354;2023-05-10T02:21:59;41.12;38.97;50.34;;
45246;Laerm;31529;51.158;7.354;2023-05-10T02:22:31;41.04;38.67;45.69;;
45246;Laerm;31529;51.158;7.354;2023-05-10T02:23:04;40.91;38.51;54.65;;
45246;Laerm;31529;51.158;7.354;2023-05-10T02:23:37;41.02;38.00;47.68;;
45246;Laerm;31529;51.158;7.354;2023-05-10T02:24:10;41.28;38.35;53.19;;
45246;Laerm;31529;51.158;7.354;2023-05-10T02:24:43;44.33;39.88;65.34;;
45246;Laerm;31529;51.158;7.354;2023-05-10T02:25:17;44.39;41.10;57.33;;
45246;Laerm;31529;51.158;7.354;2023-05-10T02:25:51;69.18;40.92;83.50;;
45246;Laerm;31529;51.158;7.354;2023-05-10T02:26:24;42.28;39.88;50.08;;
45246;Laerm;31529;51.158;7.354;2023-05-10T02:26:57;42.94;38.82;49.48;;
45246;Laerm;31529;51.158;7.354;2023-05-10T02:27:29;42.60;39.51;53.14;;
45246;Laerm;31529;51.158;7.354;2023-05-10T02:28:02;42.02;39.11;58.79;;
45246;Laerm;31529;51.158;7.354;2023-05-10T02:28:35;45.81;40.43;62.71;;
45246;Laerm;31529;51.158;7.354;2023-05-10T02:29:07;66.85;44.99;77.26;;
45246;Laerm;31529;51.158;7.354;2023-05-10T02:29:40;46.69;41.10;62.21;;
45246;Laerm;31529;51.158;7.354;2023-05-10T02:30:12;67.07;42.05;79.10;;
45246;Laerm;31529;51.158;7.354;2023-05-10T02:30:43;42.01;39.29;56.32;;
45246;Laerm;31529;51.158;7.354;2023-05-10T02:31:15;41.09;38.82;50.42;;
45246;Laerm;31529;51.158;7.354;2023-05-10T02:31:47;42.56;39.25;50.11;;
45246;Laerm;31529;51.158;7.354;2023-05-10T02:32:19;64.20;41.10;76.81;;
45246;Laerm;31529;51.158;7.354;2023-05-10T02:32:51;63.82;40.83;77.52;;
45246;Laerm;31529;51.158;7.354;2023-05-10T02:33:23;40.49;37.82;43.30;;
45246;Laerm;31529;51.158;7.354;2023-05-10T02:33:55;40.12;37.21;43.01;;
45246;Laerm;31529;51.158;7.354;2023-05-10T02:34:27;40.14;37.42;42.39;;
45246;Laerm;31529;51.158;7.354;2023-05-10T02:35:01;40.01;37.42;45.87;;
45246;Laerm;31529;51.158;7.354;2023-05-10T02:35:34;40.19;37.62;42.52;;
45246;Laerm;31529;51.158;7.354;2023-05-10T02:36:07;39.94;36.99;48.14;;
45246;Laerm;31529;51.158;7.354;2023-05-10T02:36:41;65.19;38.18;79.86;;
45246;Laerm;31529;51.158;7.354;2023-05-10T02:37:14;41.01;37.62;44.77;;
45246;Laerm;31529;51.158;7.354;2023-05-10T02:37:47;40.81;37.21;45.66;;
45246;Laerm;31529;51.158;7.354;2023-05-10T02:38:20;40.57;37.62;42.77;;
45246;Laerm;31529;51.158;7.354;2023-05-10T02:38:52;40.23;37.21;42.26;;
45246;Laerm;31529;51.158;7.354;2023-05-10T02:39:24;40.48;37.62;43.23;;
45246;Laerm;31529;51.158;7.354;2023-05-10T02:39:56;64.92;41.36;79.33;;
45246;Laerm;31529;51.158;7.354;2023-05-10T02:40:29;39.71;35.66;43.34;;
45246;Laerm;31529;51.158;7.354;2023-05-10T02:41:01;41.13;37.62;44.61;;
45246;Laerm;31529;51.158;7.354;2023-05-10T02:41:34;68.30;42.89;81.77;;
45246;Laerm;31529;51.158;7.354;2023-05-10T02:42:05;65.37;42.05;78.69;;
45246;Laerm;31529;51.158;7.354;2023-05-10T02:42:37;63.24;38.18;78.51;;
45246;Laerm;31529;51.158;7.354;2023-05-10T02:43:12;61.47;39.25;75.33;;
45246;Laerm;31529;51.158;7.354;2023-05-10T02:43:45;42.53;39.64;44.61;;
45246;Laerm;31529;51.158;7.354;2023-05-10T02:44:20;43.04;40.11;46.92;;
45246;Laerm;31529;51.158;7.354;2023-05-10T02:44:53;62.53;38.18;76.63;;
45246;Laerm;31529;51.158;7.354;2023-05-10T02:45:27;66.47;37.42;81.37;;
45246;Laerm;31529;51.158;7.354;2023-05-10T02:46:00;48.06;37.82;57.51;;
45246;Laerm;31529;51.158;7.354;2023-05-10T02:46:31;51.72;38.82;66.66;;
45246;Laerm;31529;51.158;7.354;2023-05-10T02:47:02;63.29;38.00;75.27;;
45246;Laerm;31529;51.158;7.354;2023-05-10T02:47:34;40.50;37.82;43.88;;
45246;Laerm;31529;51.158;7.354;2023-05-10T02:48:06;39.62;35.34;43.01;;
45246;Laerm;31529;51.158;7.354;2023-05-10T02:48:37;40.17;36.24;43.23;;
45246;Laerm;31529;51.158;7.354;2023-05-10T02:49:09;41.40;38.35;44.49;;
45246;Laerm;31529;51.158;7.354;2023-05-10T02:49:40;66.43;38.97;79.60;;
45246;Laerm;31529;51.158;7.354;2023-05-10T02:50:12;60.70;40.63;75.08;;
45246;Laerm;31529;51.158;7.354;2023-05-10T02:50:44;71.83;43.06;83.12;;
45246;Laerm;31529;51.158;7.354;2023-05-10T02:51:18;65.44;43.64;79.91;;
45246;Laerm;31529;51.158;7.354;2023-05-10T02:51:56;68.92;43.98;83.09;;
45246;Laerm;31529;51.158;7.354;2023-05-10T02:52:44;60.84;37.21;77.20;;
45246;Laerm;31529;51.158;7.354;2023-05-10T02:53:18;42.60;36.99;50.23;;
45246;Laerm;31529;51.158;7.354;2023-05-10T02:53:53;65.66;38.00;80.93;;
45246;Laerm;31529;51.158;7.354;2023-05-10T02:54:30;39.39;34.99;41.68;;
45246;Laerm;31529;51.158;7.354;2023-05-10T02:55:05;39.05;34.61;42.19;;
45246;Laerm;31529;51.158;7.354;2023-05-10T02:55:38;65.70;36.99;79.22;;
45246;Laerm;31529;51.158;7.354;2023-05-10T02:56:20;57.29;35.34;71.56;;
45246;Laerm;31529;51.158;7.354;2023-05-10T02:56:57;69.86;37.42;82.51;;
45246;Laerm;31529;51.158;7.354;2023-05-10T02:57:32;51.79;36.24;65.61;;
45246;Laerm;31529;51.158;7.354;2023-05-10T02:58:04;39.23;35.34;41.83;;
45246;Laerm;31529;51.158;7.354;2023-05-10T02:58:35;41.61;37.82;47.95;;
45246;Laerm;31529;51.158;7.354;2023-05-10T02:59:06;64.63;37.21;79.30;;
45246;Laerm;31529;51.158;7.354;2023-05-10T02:59:37;40.37;34.99;43.34;;
45246;Laerm;31529;51.158;7.354;2023-05-10T03:00:09;42.06;37.42;50.46;;
45246;Laerm;31529;51.158;7.354;2023-05-10T03:00:40;64.51;39.11;78.48;;
45246;Laerm;31529;51.158;7.354;2023-05-10T03:01:11;39.83;34.99;43.64;;
45246;Laerm;31529;51.158;7.354;2023-05-10T03:01:42;39.00;34.99;43.28;;
45246;Laerm;31529;51.158;7.354;2023-05-10T03:02:13;45.79;36.50;58.18;;
45246;Laerm;31529;51.158;7.354;2023-05-10T03:02:45;65.76;44.73;77.87;;
45246;Laerm;31529;51.158;7.354;2023-05-10T03:03:16;66.76;43.54;79.49;;
45246;Laerm;31529;51.158;7.354;2023-05-10T03:03:47;63.15;42.39;76.45;;
45246;Laerm;31529;51.158;7.354;2023-05-10T03:04:18;66.79;43.84;78.57;;
45246;Laerm;31529;51.158;7.354;2023-05-10T03:04:49;67.56;45.13;79.97;;
45246;Laerm;31529;51.158;7.354;2023-05-10T03:05:20;65.24;40.00;79.59;;
45246;Laerm;31529;51.158;7.354;2023-05-10T03:05:52;40.23;36.50;43.59;;
45246;Laerm;31529;51.158;7.354;2023-05-10T03:06:26;40.02;36.24;44.95;;
45246;Laerm;31529;51.158;7.354;2023-05-10T03:06:57;61.99;38.82;76.80;;
45246;Laerm;31529;51.158;7.354;2023-05-10T03:07:29;67.39;40.63;80.71;;
45246;Laerm;31529;51.158;7.354;2023-05-10T03:08:00;46.94;37.62;57.73;;
45246;Laerm;31529;51.158;7.354;2023-05-10T03:08:34;65.88;38.35;79.39;;
45246;Laerm;31529;51.158;7.354;2023-05-10T03:09:05;69.86;44.61;83.27;;
45246;Laerm;31529;51.158;7.354;2023-05-10T03:09:38;62.99;44.11;75.42;;
45246;Laerm;31529;51.158;7.354;2023-05-10T03:10:10;49.06;38.82;59.62;;
45246;Laerm;31529;51.158;7.354;2023-05-10T03:10:54;66.32;45.78;78.25;;
45246;Laerm;31529;51.158;7.354;2023-05-10T03:12:03;69.61;53.56;80.69;;
45246;Laerm;31529;51.158;7.354;2023-05-10T03:13:01;64.79;39.11;80.30;;
45246;Laerm;31529;51.158;7.354;2023-05-10T03:13:48;66.96;40.83;81.04;;
45246;Laerm;31529;51.158;7.354;2023-05-10T03:15:00;69.26;42.46;81.25;;
45246;Laerm;31529;51.158;7.354;2023-05-10T03:16:02;66.55;43.54;80.09;;
45246;Laerm;31529;51.158;7.354;2023-05-10T03:16:45;64.34;41.68;79.62;;
45246;Laerm;31529;51.158;7.354;2023-05-10T03:18:22;64.86;44.61;79.58;;
45246;Laerm;31529;51.158;7.354;2023-05-10T03:19:12;65.60;43.18;79.12;;
45246;Laerm;31529;51.158;7.354;2023-05-10T03:19:55;73.52;45.27;88.89;;
45246;Laerm;31529;51.158;7.354;2023-05-10T03:20:34;66.55;44.45;80.47;;